Time;durP1;ratioP1;P1;durP2;ratioP2;P2;SDS_P1;SDS_P2;PMS_P1;PMS_P2;Temp;Humidity;BMP_temperature;BMP_pressure;BME280_temperature;BME280_humidity;BME280_pressure;Samples;Min_cycle;Max_cycle;Signal;HPM_P1;HPM_P2
2022/10/02 00:01:19;;;;;;;5.20;1.75;;;;;;;;;;4333433;33;20214;-89
2022/10/02 00:03:47;;;;;;;8.45;3.15;;;;;;;;;;4333316;33;20241;-89
2022/10/02 00:06:19;;;;;;;4.80;2.87;;;;;;;;;;4333753;33;20229;-89
2022/10/02 00:08:47;;;;;;;8.00;3.40;;;;;;;;;;4333240;33;20219;-88
2022/10/02 00:11:19;;;;;;;6.40;2.95;;;;;;;;;;4333783;33;20248;-89
2022/10/02 00:13:49;;;;;;;10.18;4.15;;;;;;;;;;4333281;33;20277;-88
2022/10/02 00:16:25;;;;;;;10.63;3.65;;;;;;;;;;4332992;33;20206;-89
2022/10/02 00:18:54;;;;;;;11.77;3.62;;;;;;;;;;4333894;33;20303;-88
2022/10/02 00:21:33;;;;;;;8.40;3.03;;;;;;;;;;4333664;33;20876;-90
2022/10/02 00:24:03;;;;;;;6.45;2.55;;;;;;;;;;4333292;33;20223;-88
2022/10/02 00:26:35;;;;;;;5.03;2.60;;;;;;;;;;4333508;33;20232;-89
2022/10/02 00:29:16;;;;;;;5.80;1.90;;;;;;;;;;4333665;33;20309;-89
2022/10/02 00:31:50;;;;;;;4.65;2.30;;;;;;;;;;4333389;33;20202;-89
2022/10/02 00:34:29;;;;;;;10.20;2.22;;;;;;;;;;4333731;33;20202;-89
2022/10/02 00:37:02;;;;;;;8.30;3.20;;;;;;;;;;4333236;33;20207;-89
2022/10/02 00:39:41;;;;;;;6.25;2.62;;;;;;;;;;4333764;33;20217;-89
2022/10/02 00:42:48;;;;;;;7.43;2.67;;;;;;;;;;4333366;33;20302;-89
2022/10/02 00:45:57;;;;;;;15.15;3.65;;;;;;;;;;4328236;33;20252;-89
2022/10/02 00:48:54;;;;;;;7.00;3.12;;;;;;;;;;4333450;33;20294;-89
2022/10/02 00:51:36;;;;;;;7.35;2.47;;;;;;;;;;4332627;33;20269;-89
2022/10/02 00:54:19;;;;;;;9.70;1.92;;;;;;;;;;4332631;33;20253;-89
2022/10/02 00:56:56;;;;;;;7.78;2.20;;;;;;;;;;4333030;33;20199;-88
2022/10/02 00:59:35;;;;;;;3.95;1.90;;;;;;;;;;4333435;33;20596;-89
2022/10/02 01:02:11;;;;;;;13.77;2.55;;;;;;;;;;4333452;33;20369;-89
2022/10/02 01:04:40;;;;;;;6.60;2.28;;;;;;;;;;4333388;33;20232;-89
2022/10/02 01:07:09;;;;;;;6.50;2.45;;;;;;;;;;4332964;33;20249;-89
2022/10/02 01:09:37;;;;;;;8.05;2.50;;;;;;;;;;4332844;33;20215;-90
2022/10/02 01:12:04;;;;;;;8.88;1.92;;;;;;;;;;4332953;33;20300;-88
2022/10/02 01:14:32;;;;;;;5.03;2.03;;;;;;;;;;4332691;33;20582;-89
2022/10/02 01:16:59;;;;;;;4.30;1.90;;;;;;;;;;4332910;33;20313;-89
2022/10/02 01:19:34;;;;;;;6.05;2.67;;;;;;;;;;4332886;33;20219;-89
2022/10/02 01:22:07;;;;;;;9.63;3.65;;;;;;;;;;4333005;33;20211;-89
2022/10/02 01:24:38;;;;;;;4.18;2.72;;;;;;;;;;4332852;33;20233;-89
2022/10/02 01:27:07;;;;;;;7.50;3.35;;;;;;;;;;4333175;33;20257;-89
2022/10/02 01:29:34;;;;;;;7.20;3.12;;;;;;;;;;4333183;33;20241;-89
2022/10/02 01:32:04;;;;;;;11.85;4.45;;;;;;;;;;4332677;33;20282;-89
2022/10/02 01:34:32;;;;;;;8.02;3.30;;;;;;;;;;4333212;33;20211;-90
2022/10/02 01:36:59;;;;;;;8.32;3.10;;;;;;;;;;4332626;33;20203;-89
2022/10/02 01:39:27;;;;;;;4.15;2.15;;;;;;;;;;4341782;33;20207;-90
2022/10/02 01:41:54;;;;;;;4.45;1.90;;;;;;;;;;4345806;33;20688;-90
2022/10/02 01:44:24;;;;;;;3.58;1.58;;;;;;;;;;4344258;33;20352;-90
2022/10/02 01:47:00;;;;;;;6.37;1.98;;;;;;;;;;4342651;33;20226;-90
2022/10/02 01:49:43;;;;;;;6.05;2.00;;;;;;;;;;4343227;33;20240;-89
2022/10/02 01:52:23;;;;;;;6.68;2.03;;;;;;;;;;4343511;33;20274;-89
2022/10/02 01:55:03;;;;;;;8.82;2.17;;;;;;;;;;4340061;33;20288;-89
2022/10/02 01:57:42;;;;;;;6.03;1.83;;;;;;;;;;4338339;33;20223;-89
2022/10/02 02:00:14;;;;;;;8.00;1.77;;;;;;;;;;4341983;33;20227;-90
2022/10/02 02:02:53;;;;;;;9.20;2.42;;;;;;;;;;4346472;33;20231;-89
2022/10/02 02:05:31;;;;;;;5.05;2.35;;;;;;;;;;4342476;33;20253;-89
2022/10/02 02:08:08;;;;;;;3.40;2.10;;;;;;;;;;4345548;33;20238;-88
2022/10/02 02:10:43;;;;;;;3.35;2.25;;;;;;;;;;4349041;33;20255;-87
2022/10/02 02:13:16;;;;;;;3.00;1.92;;;;;;;;;;4347073;33;20237;-90
2022/10/02 02:15:54;;;;;;;6.03;1.50;;;;;;;;;;4342712;33;20204;-90
2022/10/02 02:18:26;;;;;;;3.20;2.17;;;;;;;;;;4338594;33;20244;-89
2022/10/02 02:20:59;;;;;;;6.35;1.45;;;;;;;;;;4338465;33;20231;-89
2022/10/02 02:23:29;;;;;;;5.47;2.33;;;;;;;;;;4337918;33;20247;-89
2022/10/02 02:26:02;;;;;;;5.65;1.67;;;;;;;;;;4337473;33;20219;-89
2022/10/02 02:28:31;;;;;;;5.85;1.48;;;;;;;;;;4338432;33;20215;-89
2022/10/02 02:31:01;;;;;;;2.78;1.75;;;;;;;;;;4336931;33;20249;-89
2022/10/02 02:33:36;;;;;;;6.85;1.80;;;;;;;;;;4337282;33;20253;-90
2022/10/02 02:36:09;;;;;;;6.55;1.67;;;;;;;;;;4337311;33;20571;-89
2022/10/02 02:38:39;;;;;;;3.10;2.30;;;;;;;;;;4336938;33;20277;-90
2022/10/02 02:41:11;;;;;;;2.80;2.08;;;;;;;;;;4337533;33;20257;-89
2022/10/02 02:43:44;;;;;;;4.72;1.98;;;;;;;;;;4337037;33;20223;-88
2022/10/02 02:46:18;;;;;;;11.80;2.00;;;;;;;;;;4337164;33;20215;-88
2022/10/02 02:48:48;;;;;;;2.33;1.70;;;;;;;;;;4336513;33;20226;-89
2022/10/02 02:51:19;;;;;;;3.72;1.95;;;;;;;;;;4334861;33;20211;-90
2022/10/02 02:53:51;;;;;;;7.35;2.17;;;;;;;;;;4335294;33;20269;-89
2022/10/02 02:56:20;;;;;;;6.05;1.80;;;;;;;;;;4335087;33;20541;-89
2022/10/02 02:58:52;;;;;;;7.10;2.50;;;;;;;;;;4334279;33;20672;-89
2022/10/02 03:01:20;;;;;;;3.20;1.90;;;;;;;;;;4334466;33;20227;-89
2022/10/02 03:03:47;;;;;;;6.45;2.70;;;;;;;;;;4334207;33;20290;-89
2022/10/02 03:06:30;;;;;;;4.53;3.05;;;;;;;;;;4334709;33;20282;-89
2022/10/02 03:08:58;;;;;;;3.85;1.90;;;;;;;;;;4334910;33;20285;-89
2022/10/02 03:11:41;;;;;;;5.20;2.10;;;;;;;;;;4334610;33;20237;-89
2022/10/02 03:14:30;;;;;;;5.47;2.30;;;;;;;;;;4334888;33;20223;-90
2022/10/02 03:17:07;;;;;;;5.70;1.75;;;;;;;;;;4334654;33;20253;-90
2022/10/02 03:19:43;;;;;;;4.20;2.20;;;;;;;;;;4334860;33;20293;-90
2022/10/02 03:22:15;;;;;;;4.78;2.37;;;;;;;;;;4334528;33;20244;-90
2022/10/02 03:24:48;;;;;;;7.22;2.12;;;;;;;;;;4334795;33;20211;-91
2022/10/02 03:27:22;;;;;;;2.25;1.52;;;;;;;;;;4334256;33;20249;-91
2022/10/02 03:29:56;;;;;;;5.20;1.42;;;;;;;;;;4334428;33;20211;-89
2022/10/02 03:32:24;;;;;;;1.30;1.15;;;;;;;;;;4334305;33;20219;-89
2022/10/02 03:34:52;;;;;;;3.28;1.30;;;;;;;;;;4333892;33;20244;-88
2022/10/02 03:37:20;;;;;;;4.12;1.87;;;;;;;;;;4334343;33;20227;-88
2022/10/02 03:39:50;;;;;;;7.78;2.10;;;;;;;;;;4334391;33;20239;-89
2022/10/02 03:42:21;;;;;;;5.70;1.40;;;;;;;;;;4333695;33;20588;-89
2022/10/02 03:44:48;;;;;;;1.60;1.40;;;;;;;;;;4334392;33;20266;-89
2022/10/02 03:47:15;;;;;;;4.32;1.73;;;;;;;;;;4334127;33;20298;-90
2022/10/02 03:49:45;;;;;;;2.40;1.58;;;;;;;;;;4334338;33;20601;-90
2022/10/02 03:52:15;;;;;;;3.22;1.87;;;;;;;;;;4334184;33;20311;-90
2022/10/02 03:54:42;;;;;;;3.67;1.87;;;;;;;;;;4333917;33;20552;-89
2022/10/02 03:57:13;;;;;;;4.57;1.85;;;;;;;;;;4333390;33;20219;-90
2022/10/02 03:59:46;;;;;;;4.50;2.25;;;;;;;;;;4333837;33;20207;-89
2022/10/02 04:02:23;;;;;;;9.55;2.10;;;;;;;;;;4333514;33;20625;-90
2022/10/02 04:04:56;;;;;;;4.25;2.22;;;;;;;;;;4334104;33;20219;-90
2022/10/02 04:07:27;;;;;;;3.17;2.20;;;;;;;;;;4333856;33;20665;-90
2022/10/02 04:10:03;;;;;;;5.45;2.42;;;;;;;;;;4333853;33;20219;-90
2022/10/02 04:12:36;;;;;;;6.37;3.08;;;;;;;;;;4334045;33;20294;-89
2022/10/02 04:15:13;;;;;;;4.43;2.67;;;;;;;;;;4334102;33;20216;-89
2022/10/02 04:17:43;;;;;;;6.30;2.50;;;;;;;;;;4334111;33;20227;-90
2022/10/02 04:20:17;;;;;;;6.25;2.78;;;;;;;;;;4333815;33;20227;-90
2022/10/02 04:22:50;;;;;;;5.37;3.00;;;;;;;;;;4333937;33;20696;-90
2022/10/02 04:25:19;;;;;;;6.95;3.50;;;;;;;;;;4333805;33;20213;-90
2022/10/02 04:27:52;;;;;;;8.98;3.80;;;;;;;;;;4333329;33;20226;-89
2022/10/02 04:30:20;;;;;;;8.55;4.12;;;;;;;;;;4333739;33;20226;-90
2022/10/02 04:32:48;;;;;;;11.40;4.95;;;;;;;;;;4333496;33;20242;-90
2022/10/02 04:35:24;;;;;;;10.82;4.37;;;;;;;;;;4334105;33;20794;-90
2022/10/02 04:38:04;;;;;;;11.18;4.22;;;;;;;;;;4334989;33;20218;-89
2022/10/02 04:40:49;;;;;;;9.60;4.72;;;;;;;;;;4336886;33;20215;-91
2022/10/02 04:43:27;;;;;;;8.90;4.05;;;;;;;;;;4338094;33;20301;-90
2022/10/02 04:46:07;;;;;;;8.93;4.90;;;;;;;;;;4336923;33;20229;-90
2022/10/02 04:48:59;;;;;;;6.72;3.60;;;;;;;;;;4334865;33;20235;-89
2022/10/02 04:51:42;;;;;;;6.45;3.40;;;;;;;;;;4343850;33;20253;-90
2022/10/02 04:54:24;;;;;;;10.23;3.47;;;;;;;;;;4343513;33;20246;-90
2022/10/02 04:57:10;;;;;;;7.75;3.17;;;;;;;;;;4344011;33;20215;-89
2022/10/02 04:59:52;;;;;;;14.73;8.38;;;;;;;;;;4338555;33;20203;-90
2022/10/02 05:02:34;;;;;;;15.70;7.50;;;;;;;;;;4340847;33;20254;-89
2022/10/02 05:05:20;;;;;;;11.60;6.75;;;;;;;;;;4338543;33;20283;-88
2022/10/02 05:08:15;;;;;;;9.60;5.05;;;;;;;;;;4334153;33;20245;-90
2022/10/02 05:10:56;;;;;;;7.28;4.40;;;;;;;;;;4333299;33;20212;-90
2022/10/02 05:13:43;;;;;;;13.10;3.35;;;;;;;;;;4333332;33;20265;-89
2022/10/02 05:16:26;;;;;;;7.40;4.50;;;;;;;;;;4334279;33;20217;-89
2022/10/02 05:19:29;;;;;;;9.48;3.67;;;;;;;;;;4333166;33;20554;-89
2022/10/02 05:22:38;;;;;;;7.03;3.65;;;;;;;;;;4332748;33;20270;-89
2022/10/02 05:25:21;;;;;;;7.60;3.28;;;;;;;;;;4332895;33;20306;-90
2022/10/02 05:28:03;;;;;;;9.38;3.22;;;;;;;;;;4333003;33;20601;-90
2022/10/02 05:30:38;;;;;;;12.27;3.95;;;;;;;;;;4332623;33;20592;-90
2022/10/02 05:33:17;;;;;;;7.80;3.50;;;;;;;;;;4334282;33;20313;-90
2022/10/02 05:36:01;;;;;;;6.07;3.67;;;;;;;;;;4334457;33;20582;-90
2022/10/02 05:38:45;;;;;;;7.82;4.20;;;;;;;;;;4336434;33;20310;-90
2022/10/02 05:41:19;;;;;;;7.65;3.50;;;;;;;;;;4335856;33;20229;-90
2022/10/02 05:43:49;;;;;;;10.63;4.07;;;;;;;;;;4333326;33;20555;-89
2022/10/02 05:46:23;;;;;;;5.75;3.55;;;;;;;;;;4336088;33;20273;-88
2022/10/02 05:48:57;;;;;;;5.85;3.37;;;;;;;;;;4334797;33;20237;-91
2022/10/02 05:51:35;;;;;;;3.33;2.85;;;;;;;;;;4335361;33;20227;-88
2022/10/02 05:54:07;;;;;;;8.68;3.05;;;;;;;;;;4333805;33;20592;-90
2022/10/02 05:56:40;;;;;;;5.95;3.08;;;;;;;;;;4337095;33;20241;-90
2022/10/02 05:59:17;;;;;;;7.00;2.90;;;;;;;;;;4336285;33;20270;-89
2022/10/02 06:01:46;;;;;;;5.75;2.65;;;;;;;;;;4334274;33;20682;-89
2022/10/02 06:04:17;;;;;;;4.35;2.85;;;;;;;;;;4334388;33;20234;-90
2022/10/02 06:06:48;;;;;;;13.52;10.98;;;;;;;;;;4335079;33;20211;-90
2022/10/02 06:09:18;;;;;;;8.18;6.12;;;;;;;;;;4334443;33;20612;-89
2022/10/02 06:11:50;;;;;;;3.33;2.53;;;;;;;;;;4332444;33;20290;-91
2022/10/02 06:14:25;;;;;;;2.67;2.42;;;;;;;;;;4332789;33;20545;-90
2022/10/02 06:16:57;;;;;;;4.00;2.78;;;;;;;;;;4332519;33;20294;-90
2022/10/02 06:19:28;;;;;;;5.55;2.55;;;;;;;;;;4332321;33;20252;-89
2022/10/02 06:21:58;;;;;;;3.28;2.00;;;;;;;;;;4333653;33;20340;-89
2022/10/02 06:24:30;;;;;;;1.67;1.40;;;;;;;;;;4334526;33;20334;-90
2022/10/02 06:27:04;;;;;;;2.00;1.23;;;;;;;;;;4335916;33;20233;-88
2022/10/02 06:29:37;;;;;;;5.43;1.30;;;;;;;;;;4337352;33;20282;-88
2022/10/02 06:32:14;;;;;;;4.62;1.90;;;;;;;;;;4337166;33;20223;-90
2022/10/02 06:34:41;;;;;;;1.25;1.10;;;;;;;;;;4337335;33;20637;-89
2022/10/02 06:37:28;;;;;;;6.07;1.65;;;;;;;;;;4337007;33;20256;-89
2022/10/02 06:40:13;;;;;;;5.12;1.30;;;;;;;;;;4336074;33;20219;-88
2022/10/02 06:42:53;;;;;;;2.30;1.27;;;;;;;;;;4337112;33;20245;-88
2022/10/02 06:45:30;;;;;;;4.75;1.30;;;;;;;;;;4336771;33;20235;-87
2022/10/02 06:48:05;;;;;;;1.83;1.23;;;;;;;;;;4339077;33;20265;-89
2022/10/02 06:50:43;;;;;;;4.32;1.52;;;;;;;;;;4336979;33;20222;-89
2022/10/02 06:53:30;;;;;;;2.78;1.17;;;;;;;;;;4337439;33;20344;-88
2022/10/02 06:56:08;;;;;;;1.37;1.27;;;;;;;;;;4338743;33;20282;-86
2022/10/02 06:58:51;;;;;;;6.53;1.12;;;;;;;;;;4336495;33;20265;-90
2022/10/02 07:01:30;;;;;;;3.17;0.90;;;;;;;;;;4337022;33;20223;-88
2022/10/02 07:04:21;;;;;;;2.12;0.95;;;;;;;;;;4337615;33;20340;-88
2022/10/02 07:07:02;;;;;;;5.15;1.45;;;;;;;;;;4337969;33;20221;-89
2022/10/02 07:10:07;;;;;;;1.87;1.33;;;;;;;;;;4335065;33;20265;-90
2022/10/02 07:12:56;;;;;;;3.47;1.77;;;;;;;;;;4274707;33;20597;-89
2022/10/02 07:15:45;;;;;;;5.00;1.60;;;;;;;;;;4275084;33;20228;-90
2022/10/02 07:18:21;;;;;;;3.40;1.25;;;;;;;;;;4321267;33;20246;-88
2022/10/02 07:20:56;;;;;;;4.53;2.15;;;;;;;;;;4334867;33;20233;-89
2022/10/02 07:23:42;;;;;;;4.40;3.08;;;;;;;;;;4334746;33;20238;-89
2022/10/02 07:26:31;;;;;;;2.53;1.75;;;;;;;;;;4334621;33;20292;-90
2022/10/02 07:29:09;;;;;;;1.60;1.40;;;;;;;;;;4334144;33;20687;-90
2022/10/02 07:31:49;;;;;;;1.85;1.30;;;;;;;;;;4334603;33;20733;-91
2022/10/02 07:34:28;;;;;;;2.78;1.92;;;;;;;;;;4334611;33;20289;-90
2022/10/02 07:37:09;;;;;;;2.45;1.35;;;;;;;;;;4334042;33;20274;-90
2022/10/02 07:39:49;;;;;;;5.10;2.15;;;;;;;;;;4334663;33;20273;-89
2022/10/02 07:42:28;;;;;;;3.87;1.25;;;;;;;;;;4334149;33;20293;-89
2022/10/02 07:45:30;;;;;;;2.15;1.30;;;;;;;;;;4334703;33;20229;-88
2022/10/02 07:48:42;;;;;;;1.67;1.58;;;;;;;;;;4331186;33;20243;-89
2022/10/02 07:54:24;;;;;;;3.75;2.42;;;;;;;;;;4334308;33;20218;-89
2022/10/02 07:56:54;;;;;;;1.30;1.10;;;;;;;;;;4333845;33;20601;-89
2022/10/02 07:59:21;;;;;;;2.20;1.27;;;;;;;;;;4334955;33;20237;-88
2022/10/02 08:01:50;;;;;;;5.93;1.10;;;;;;;;;;4333683;33;20287;-89
2022/10/02 08:04:22;;;;;;;1.20;1.10;;;;;;;;;;4335429;33;20234;-89
2022/10/02 08:07:01;;;;;;;2.72;1.60;;;;;;;;;;4335507;33;20223;-89
2022/10/02 08:09:34;;;;;;;4.12;1.55;;;;;;;;;;4339680;33;20202;-88
2022/10/02 08:12:06;;;;;;;3.83;1.12;;;;;;;;;;4343740;33;20216;-87
2022/10/02 08:14:38;;;;;;;2.83;1.10;;;;;;;;;;4343152;33;20291;-87
2022/10/02 08:17:10;;;;;;;4.03;1.20;;;;;;;;;;4342886;33;20282;-88
2022/10/02 08:19:43;;;;;;;0.80;0.80;;;;;;;;;;4343971;33;20290;-88
2022/10/02 08:22:17;;;;;;;1.17;1.08;;;;;;;;;;4341497;33;20234;-90
2022/10/02 08:24:49;;;;;;;4.50;1.20;;;;;;;;;;4334882;33;20552;-90
2022/10/02 08:27:21;;;;;;;3.45;1.35;;;;;;;;;;4334145;33;20295;-89
2022/10/02 08:29:53;;;;;;;1.45;0.98;;;;;;;;;;4333990;33;20282;-91
2022/10/02 08:32:21;;;;;;;3.80;0.95;;;;;;;;;;4333869;33;20223;-90
2022/10/02 08:34:48;;;;;;;4.20;1.40;;;;;;;;;;4333903;33;20274;-90
2022/10/02 08:37:31;;;;;;;1.27;0.80;;;;;;;;;;4333940;33;20646;-90
2022/10/02 08:40:30;;;;;;;1.45;1.33;;;;;;;;;;4333777;33;20237;-90
2022/10/02 08:43:34;;;;;;;1.12;1.00;;;;;;;;;;4333766;33;20310;-90
2022/10/02 08:46:42;;;;;;;2.03;1.10;;;;;;;;;;4333732;33;20202;-89
2022/10/02 08:49:44;;;;;;;1.23;1.12;;;;;;;;;;4332857;33;20218;-90
2022/10/02 08:52:42;;;;;;;1.42;0.90;;;;;;;;;;4331035;33;20242;-90
2022/10/02 08:55:46;;;;;;;1.10;1.00;;;;;;;;;;4331013;33;20243;-91
2022/10/02 08:58:48;;;;;;;2.55;1.30;;;;;;;;;;4300888;33;20255;-90
2022/10/02 09:01:52;;;;;;;1.87;0.90;;;;;;;;;;4333081;33;20242;-91
2022/10/02 09:05:00;;;;;;;3.17;1.15;;;;;;;;;;4333640;33;20596;-91
2022/10/02 09:08:07;;;;;;;1.25;0.80;;;;;;;;;;4333167;33;20285;-91
2022/10/02 09:11:03;;;;;;;2.87;1.02;;;;;;;;;;4333241;33;20284;-90
2022/10/02 09:14:13;;;;;;;3.83;1.00;;;;;;;;;;4333057;33;20269;-91
2022/10/02 09:16:57;;;;;;;6.53;2.05;;;;;;;;;;4260303;33;20304;-90
2022/10/02 09:19:40;;;;;;;1.52;0.90;;;;;;;;;;4262942;33;20242;-87
2022/10/02 09:22:39;;;;;;;1.80;0.90;;;;;;;;;;4316521;33;20633;-89
2022/10/02 09:25:21;;;;;;;1.20;0.93;;;;;;;;;;4333921;33;20232;-90
2022/10/02 09:28:33;;;;;;;1.58;0.90;;;;;;;;;;4337594;33;20282;-90
2022/10/02 09:31:24;;;;;;;0.98;0.80;;;;;;;;;;4323309;33;20256;-91
2022/10/02 09:34:17;;;;;;;0.68;0.68;;;;;;;;;;4333438;33;20257;-89
2022/10/02 09:37:11;;;;;;;2.25;1.15;;;;;;;;;;4333039;33;20237;-91
2022/10/02 09:40:07;;;;;;;1.12;0.85;;;;;;;;;;4333256;33;20235;-90
2022/10/02 09:43:16;;;;;;;1.00;0.80;;;;;;;;;;4332981;33;20731;-90
2022/10/02 09:46:12;;;;;;;3.70;0.90;;;;;;;;;;4332763;33;20266;-90
2022/10/02 09:49:19;;;;;;;1.30;0.93;;;;;;;;;;4333150;33;20235;-90
2022/10/02 09:52:13;;;;;;;1.70;1.50;;;;;;;;;;4332833;33;20739;-91
2022/10/02 09:55:13;;;;;;;6.03;0.98;;;;;;;;;;4333082;33;20206;-91
2022/10/02 09:58:30;;;;;;;1.37;1.10;;;;;;;;;;4332822;33;20693;-91
2022/10/02 10:01:15;;;;;;;1.42;1.10;;;;;;;;;;4334052;33;20237;-90
2022/10/02 10:04:19;;;;;;;1.02;0.93;;;;;;;;;;4335849;33;20248;-89
2022/10/02 10:07:25;;;;;;;5.53;1.00;;;;;;;;;;4335684;33;20211;-89
2022/10/02 10:10:18;;;;;;;3.40;1.12;;;;;;;;;;4335864;33;20231;-90
2022/10/02 10:13:22;;;;;;;5.07;0.80;;;;;;;;;;4335482;33;20278;-89
2022/10/02 10:16:30;;;;;;;2.65;0.82;;;;;;;;;;4335643;33;20222;-90
2022/10/02 10:19:25;;;;;;;1.02;0.93;;;;;;;;;;4335415;33;20316;-90
2022/10/02 10:22:26;;;;;;;1.08;0.98;;;;;;;;;;4335460;33;20231;-91
2022/10/02 10:25:17;;;;;;;1.15;0.80;;;;;;;;;;4335941;33;20695;-91
2022/10/02 10:28:22;;;;;;;4.65;0.95;;;;;;;;;;4335765;33;20261;-91
2022/10/02 10:31:28;;;;;;;0.70;0.70;;;;;;;;;;4323291;33;20246;-90
2022/10/02 10:34:22;;;;;;;0.80;0.68;;;;;;;;;;4299322;33;20689;-89
2022/10/02 10:40:34;;;;;;;1.00;0.80;;;;;;;;;;4335039;33;20577;-89
2022/10/02 10:43:41;;;;;;;1.20;0.88;;;;;;;;;;4304813;33;20254;-89
2022/10/02 10:46:50;;;;;;;5.80;0.98;;;;;;;;;;4335762;33;20257;-91
2022/10/02 10:50:03;;;;;;;0.80;0.80;;;;;;;;;;4335862;33;20293;-90
2022/10/02 10:52:56;;;;;;;0.90;0.68;;;;;;;;;;4276011;33;20323;-90
2022/10/02 10:55:42;;;;;;;0.60;0.60;;;;;;;;;;4246750;33;20252;-90
2022/10/02 10:58:20;;;;;;;1.52;0.70;;;;;;;;;;4326915;33;20258;-89
2022/10/02 11:01:00;;;;;;;2.87;0.73;;;;;;;;;;4336337;33;20282;-89
2022/10/02 11:03:52;;;;;;;1.05;0.85;;;;;;;;;;4338001;33;20356;-91
2022/10/02 11:06:51;;;;;;;1.62;0.73;;;;;;;;;;4335891;33;20215;-90
2022/10/02 11:09:47;;;;;;;6.90;0.70;;;;;;;;;;4336193;33;20255;-89
2022/10/02 11:12:32;;;;;;;2.85;1.02;;;;;;;;;;4333895;33;20277;-91
2022/10/02 11:15:18;;;;;;;0.75;0.75;;;;;;;;;;4335917;33;20622;-88
2022/10/02 11:18:04;;;;;;;3.20;0.70;;;;;;;;;;4336184;33;20261;-88
2022/10/02 11:21:03;;;;;;;0.90;0.75;;;;;;;;;;4337579;33;20262;-88
2022/10/02 11:24:01;;;;;;;1.02;0.62;;;;;;;;;;4334526;33;20231;-90
2022/10/02 11:26:58;;;;;;;2.28;0.80;;;;;;;;;;4305128;33;20702;-91
2022/10/02 11:29:56;;;;;;;1.30;1.00;;;;;;;;;;4333734;33;20263;-90
2022/10/02 11:32:36;;;;;;;1.45;0.70;;;;;;;;;;4330604;33;20317;-90
2022/10/02 11:35:23;;;;;;;0.80;0.70;;;;;;;;;;4337452;33;20261;-91
2022/10/02 11:38:24;;;;;;;1.75;0.85;;;;;;;;;;4329281;33;20294;-91
2022/10/02 11:41:19;;;;;;;3.80;0.60;;;;;;;;;;4344479;33;20225;-90
2022/10/02 11:44:31;;;;;;;3.55;0.88;;;;;;;;;;4340017;33;20274;-89
2022/10/02 11:47:17;;;;;;;0.60;0.60;;;;;;;;;;4264976;33;20315;-90
2022/10/02 11:50:14;;;;;;;2.58;0.80;;;;;;;;;;4344164;33;20207;-90
2022/10/02 11:53:03;;;;;;;0.80;0.70;;;;;;;;;;4336024;33;20257;-90
2022/10/02 11:55:46;;;;;;;5.78;1.02;;;;;;;;;;4336023;33;20227;-90
2022/10/02 11:58:24;;;;;;;12.32;2.12;;;;;;;;;;4334993;33;20318;-91
2022/10/02 12:01:23;;;;;;;7.25;1.30;;;;;;;;;;4337868;33;20240;-91
2022/10/02 12:04:02;;;;;;;1.15;0.80;;;;;;;;;;4347211;33;20192;-92
2022/10/02 12:06:50;;;;;;;4.53;1.60;;;;;;;;;;4345753;33;20223;-92
2022/10/02 12:09:27;;;;;;;2.03;1.00;;;;;;;;;;4344333;33;20215;-91
2022/10/02 12:12:05;;;;;;;3.40;1.42;;;;;;;;;;4348746;33;20241;-90
2022/10/02 12:14:39;;;;;;;3.25;1.05;;;;;;;;;;4349043;33;20231;-87
2022/10/02 12:17:38;;;;;;;0.73;0.60;;;;;;;;;;4349347;33;20232;-92
2022/10/02 12:28:59;;;;;;;0.70;0.60;;;;;;;;;;4339835;33;20671;-91
2022/10/02 12:31:39;;;;;;;0.70;0.52;;;;;;;;;;4335530;33;20613;-90
2022/10/02 12:34:15;;;;;;;1.30;0.77;;;;;;;;;;4334425;33;20534;-92
2022/10/02 12:36:55;;;;;;;1.58;1.48;;;;;;;;;;4334474;33;20207;-91
2022/10/02 12:39:35;;;;;;;1.15;0.70;;;;;;;;;;4334779;33;20223;-91
2022/10/02 12:42:25;;;;;;;1.80;0.80;;;;;;;;;;4333902;33;20309;-93
2022/10/02 12:45:13;;;;;;;1.12;0.65;;;;;;;;;;4334212;33;20225;-92
2022/10/02 12:48:07;;;;;;;1.15;0.80;;;;;;;;;;4334162;33;20220;-92
2022/10/02 12:50:53;;;;;;;1.00;0.73;;;;;;;;;;4334263;33;20629;-92
2022/10/02 12:53:59;;;;;;;2.35;0.80;;;;;;;;;;4333414;33;20245;-93
2022/10/02 12:56:52;;;;;;;3.50;1.20;;;;;;;;;;4311129;33;20241;-94
2022/10/02 12:59:26;;;;;;;1.33;0.68;;;;;;;;;;4333613;33;20266;-91
2022/10/02 13:02:38;;;;;;;0.90;0.68;;;;;;;;;;4332977;33;20324;-91
2022/10/02 13:05:39;;;;;;;1.20;1.05;;;;;;;;;;4333700;33;20279;-91
2022/10/02 13:08:34;;;;;;;1.15;0.95;;;;;;;;;;4334422;33;20305;-91
2022/10/02 13:11:13;;;;;;;1.23;0.65;;;;;;;;;;4333778;33;20215;-89
2022/10/02 13:14:05;;;;;;;1.17;0.80;;;;;;;;;;4334032;33;20203;-92
2022/10/02 13:16:51;;;;;;;1.10;1.00;;;;;;;;;;4333208;33;20560;-90
2022/10/02 13:19:25;;;;;;;3.45;0.85;;;;;;;;;;4333651;33;20293;-92
2022/10/02 13:22:01;;;;;;;1.95;1.10;;;;;;;;;;4333766;33;20260;-91
2022/10/02 13:24:52;;;;;;;1.45;0.60;;;;;;;;;;4333485;33;20384;-91
2022/10/02 13:27:30;;;;;;;3.70;1.30;;;;;;;;;;4334030;33;20226;-92
2022/10/02 13:30:10;;;;;;;1.25;0.90;;;;;;;;;;4333169;33;20215;-90
2022/10/02 13:33:13;;;;;;;3.42;0.93;;;;;;;;;;4333171;33;20206;-90
2022/10/02 13:36:09;;;;;;;1.10;1.00;;;;;;;;;;4329689;33;20250;-90
2022/10/02 13:39:02;;;;;;;2.05;1.00;;;;;;;;;;4331508;33;20298;-92
2022/10/02 13:41:41;;;;;;;0.88;0.80;;;;;;;;;;4333062;33;20300;-92
2022/10/02 13:44:19;;;;;;;2.28;0.88;;;;;;;;;;4333517;33;20223;-90
2022/10/02 13:47:16;;;;;;;1.55;0.62;;;;;;;;;;4333141;33;20225;-89
2022/10/02 13:50:00;;;;;;;3.35;0.60;;;;;;;;;;4334500;33;20269;-88
2022/10/02 13:52:33;;;;;;;1.75;1.00;;;;;;;;;;4335360;33;20207;-89
2022/10/02 13:55:23;;;;;;;0.82;0.80;;;;;;;;;;4339876;33;20311;-90
2022/10/02 13:58:19;;;;;;;1.20;0.80;;;;;;;;;;4330740;33;20610;-89
2022/10/02 14:01:03;;;;;;;2.45;0.68;;;;;;;;;;4306120;33;20247;-90
2022/10/02 14:03:42;;;;;;;0.95;0.60;;;;;;;;;;4333394;33;20236;-89
2022/10/02 14:06:19;;;;;;;1.90;0.65;;;;;;;;;;4332910;33;20289;-89
2022/10/02 14:09:17;;;;;;;0.80;0.80;;;;;;;;;;4332763;33;20680;-90
2022/10/02 14:12:10;;;;;;;1.17;0.70;;;;;;;;;;4332429;33;20310;-89
2022/10/02 14:15:02;;;;;;;1.12;0.70;;;;;;;;;;4330912;33;20605;-89
2022/10/02 14:17:37;;;;;;;2.85;0.73;;;;;;;;;;4332701;33;20336;-91
2022/10/02 14:20:20;;;;;;;1.55;0.80;;;;;;;;;;4332664;33;20286;-88
2022/10/02 14:23:03;;;;;;;2.20;0.85;;;;;;;;;;4332546;33;20226;-89
2022/10/02 14:25:44;;;;;;;1.42;0.98;;;;;;;;;;4332423;33;20568;-89
2022/10/02 14:28:31;;;;;;;1.25;0.70;;;;;;;;;;4332637;33;20523;-90
2022/10/02 14:31:07;;;;;;;0.98;0.70;;;;;;;;;;4332801;33;20223;-89
2022/10/02 14:33:52;;;;;;;1.00;0.90;;;;;;;;;;4332615;33;20230;-89
2022/10/02 14:36:25;;;;;;;1.40;0.80;;;;;;;;;;4332259;33;21230;-88
2022/10/02 14:39:10;;;;;;;2.55;0.70;;;;;;;;;;4332620;33;20212;-89
2022/10/02 14:42:00;;;;;;;0.98;0.65;;;;;;;;;;4332537;33;20385;-89
2022/10/02 14:44:54;;;;;;;1.73;1.10;;;;;;;;;;4332677;33;20303;-89
2022/10/02 14:48:05;;;;;;;2.22;0.90;;;;;;;;;;4334066;33;20226;-89
2022/10/02 14:50:59;;;;;;;1.77;1.10;;;;;;;;;;4292976;33;20750;-89
2022/10/02 14:54:02;;;;;;;2.03;1.37;;;;;;;;;;4335320;33;20231;-91
2022/10/02 14:56:53;;;;;;;2.28;1.30;;;;;;;;;;4310011;33;20351;-89
2022/10/02 14:59:49;;;;;;;3.75;1.77;;;;;;;;;;4338995;33;20211;-90
2022/10/02 15:03:01;;;;;;;5.35;1.70;;;;;;;;;;4342057;33;20237;-90
2022/10/02 15:05:45;;;;;;;3.80;1.48;;;;;;;;;;4290854;33;20227;-89
2022/10/02 15:08:16;;;;;;;3.53;1.45;;;;;;;;;;4339008;33;20290;-90
2022/10/02 15:10:47;;;;;;;2.90;1.10;;;;;;;;;;4340147;33;20207;-89
2022/10/02 15:13:25;;;;;;;2.67;1.10;;;;;;;;;;4336824;33;20214;-90
2022/10/02 15:18:43;;;;;;;5.45;1.83;;;;;;;;;;4333989;33;20345;-90
2022/10/02 15:21:25;;;;;;;5.18;1.50;;;;;;;;;;4334589;33;20215;-88
2022/10/02 15:23:56;;;;;;;2.35;0.90;;;;;;;;;;4335856;33;20196;-90
2022/10/02 15:26:45;;;;;;;3.45;1.27;;;;;;;;;;4334848;33;20273;-88
2022/10/02 15:29:28;;;;;;;2.10;1.30;;;;;;;;;;4335055;33;20273;-89
2022/10/02 15:32:27;;;;;;;7.68;1.77;;;;;;;;;;4334587;33;20242;-91
2022/10/02 15:35:05;;;;;;;2.83;1.70;;;;;;;;;;4334791;33;20605;-90
2022/10/02 15:37:44;;;;;;;4.72;1.67;;;;;;;;;;4334387;33;20657;-90
2022/10/02 15:40:34;;;;;;;3.10;1.83;;;;;;;;;;4334776;33;20257;-90
2022/10/02 15:43:17;;;;;;;4.97;2.87;;;;;;;;;;4334158;33;20223;-89
2022/10/02 15:46:03;;;;;;;7.45;2.37;;;;;;;;;;4334498;33;20229;-90
2022/10/02 15:48:55;;;;;;;2.20;1.85;;;;;;;;;;4334816;33;20262;-90
2022/10/02 15:51:38;;;;;;;2.50;1.45;;;;;;;;;;4334147;33;20219;-90
2022/10/02 15:54:16;;;;;;;1.77;1.45;;;;;;;;;;4334495;33;20215;-91
2022/10/02 15:57:11;;;;;;;7.22;1.80;;;;;;;;;;4334115;33;20245;-90
2022/10/02 16:00:09;;;;;;;2.62;1.60;;;;;;;;;;4334130;33;20219;-89
2022/10/02 16:03:02;;;;;;;3.87;1.80;;;;;;;;;;4333363;33;20257;-90
2022/10/02 16:05:55;;;;;;;6.90;3.30;;;;;;;;;;4327041;33;20258;-91
2022/10/02 16:08:53;;;;;;;3.28;2.30;;;;;;;;;;4334401;33;20207;-90
2022/10/02 16:11:56;;;;;;;5.45;1.98;;;;;;;;;;4334007;33;20261;-89
2022/10/02 16:14:35;;;;;;;6.45;2.87;;;;;;;;;;4334538;33;20203;-89
2022/10/02 16:17:36;;;;;;;4.00;2.65;;;;;;;;;;4334164;33;20237;-88
2022/10/02 16:20:24;;;;;;;10.30;3.28;;;;;;;;;;4295144;33;20323;-89
2022/10/02 16:23:03;;;;;;;6.10;3.55;;;;;;;;;;4333668;33;20219;-90
2022/10/02 16:25:41;;;;;;;7.47;3.53;;;;;;;;;;4333614;33;20597;-90
2022/10/02 16:28:18;;;;;;;6.12;3.15;;;;;;;;;;4333980;33;20214;-89
2022/10/02 16:31:06;;;;;;;8.43;3.28;;;;;;;;;;4333470;33;20218;-89
2022/10/02 16:33:46;;;;;;;6.95;3.50;;;;;;;;;;4333531;33;20278;-89